createdAt,value
2019-02-17T00:00:32.129Z,386
2019-02-17T00:01:39.318Z,385
2019-02-17T00:02:46.504Z,385
2019-02-17T00:03:53.703Z,385
2019-02-17T00:05:00.872Z,385
2019-02-17T00:06:08.054Z,386
2019-02-17T00:07:15.247Z,385
2019-02-17T00:08:22.443Z,385
2019-02-17T00:09:29.637Z,385
2019-02-17T00:10:36.833Z,385
2019-02-17T00:11:44.020Z,384
2019-02-17T00:12:51.217Z,384
2019-02-17T00:13:57.866Z,384
2019-02-17T00:15:05.057Z,385
2019-02-17T00:16:11.973Z,385
2019-02-17T00:17:19.181Z,385
2019-02-17T00:18:26.356Z,384
2019-02-17T00:19:33.609Z,384
2019-02-17T00:20:40.809Z,383
2019-02-17T00:21:47.464Z,382
2019-02-17T00:22:54.105Z,382
2019-02-17T00:24:00.755Z,382
2019-02-17T00:25:07.719Z,382
2019-02-17T00:26:14.909Z,382
2019-02-17T00:27:22.098Z,381
2019-02-17T00:28:29.292Z,382
2019-02-17T00:29:36.210Z,382
2019-02-17T00:30:43.134Z,381
2019-02-17T00:31:50.330Z,381
2019-02-17T00:32:57.515Z,382
2019-02-17T00:34:04.709Z,383
2019-02-17T00:35:11.900Z,383
2019-02-17T00:36:19.099Z,383
2019-02-17T00:37:26.291Z,383
2019-02-17T00:38:33.216Z,383
2019-02-17T00:39:40.137Z,382
2019-02-17T00:41:01.981Z,381
2019-02-17T00:42:08.903Z,381
2019-02-17T00:43:15.824Z,380
2019-02-17T00:44:23.024Z,381
2019-02-17T00:45:29.939Z,380
2019-02-17T00:46:36.601Z,380
2019-02-17T00:47:43.793Z,380
2019-02-17T00:48:50.992Z,380
2019-02-17T00:49:57.907Z,379
2019-02-17T00:51:04.821Z,378
2019-02-17T00:52:12.018Z,379
2019-02-17T00:53:18.668Z,379
2019-02-17T00:54:25.859Z,379
2019-02-17T00:55:33.054Z,379
2019-02-17T00:56:40.244Z,380
2019-02-17T00:57:47.435Z,380
2019-02-17T00:58:54.357Z,380
2019-02-17T01:00:01.427Z,381
2019-02-17T01:01:08.622Z,381
2019-02-17T01:02:15.815Z,381
2019-02-17T01:03:23.035Z,381
2019-02-17T01:04:29.951Z,382
2019-02-17T01:05:37.147Z,382
2019-02-17T01:06:43.788Z,381
2019-02-17T01:07:50.979Z,381
2019-02-17T01:08:57.900Z,381
2019-02-17T01:10:04.817Z,381
2019-02-17T01:11:12.009Z,381
2019-02-17T01:12:19.214Z,380
2019-02-17T01:13:26.409Z,379
2019-02-17T01:14:33.602Z,380
2019-02-17T01:15:40.790Z,380
2019-02-17T01:16:47.714Z,380
2019-02-17T01:17:54.902Z,380
2019-02-17T01:19:02.093Z,379
2019-02-17T01:20:09.281Z,379
2019-02-17T01:21:16.467Z,379
2019-02-17T01:22:23.385Z,380
2019-02-17T01:23:30.575Z,379
2019-02-17T01:24:37.497Z,380
2019-02-17T01:25:44.692Z,380
2019-02-17T01:26:51.881Z,365
2019-02-17T01:27:58.822Z,368
2019-02-17T01:29:05.738Z,369
2019-02-17T01:30:12.930Z,371
2019-02-17T01:31:20.116Z,371
2019-02-17T01:32:27.372Z,370
2019-02-17T01:33:34.552Z,372
2019-02-17T01:34:41.740Z,373
2019-02-17T01:35:48.932Z,373
2019-02-17T01:36:55.580Z,372
2019-02-17T01:38:02.775Z,373
2019-02-17T01:39:09.972Z,373
2019-02-17T01:40:17.158Z,373
2019-02-17T01:41:24.345Z,373
2019-02-17T01:42:31.269Z,372
2019-02-17T01:43:38.457Z,372
2019-02-17T01:44:45.665Z,371
2019-02-17T01:45:52.854Z,371
2019-02-17T01:47:00.047Z,370
2019-02-17T01:48:07.237Z,370
2019-02-17T01:49:14.427Z,370
2019-02-17T01:50:21.342Z,370
2019-02-17T01:51:28.259Z,371
2019-02-17T01:52:35.455Z,371
2019-02-17T01:53:42.390Z,371
2019-02-17T01:54:49.626Z,371
2019-02-17T01:55:56.812Z,371
2019-02-17T01:57:04.003Z,372
2019-02-17T01:58:10.909Z,371
2019-02-17T01:59:18.101Z,371
2019-02-17T02:00:25.318Z,370
2019-02-17T02:01:32.491Z,370
2019-02-17T02:02:39.411Z,372
2019-02-17T02:03:46.334Z,373
2019-02-17T02:04:53.523Z,373
2019-02-17T02:06:00.723Z,373
2019-02-17T02:07:07.936Z,372
2019-02-17T02:08:15.131Z,372
2019-02-17T02:09:22.321Z,373
2019-02-17T02:10:29.241Z,374
2019-02-17T02:11:36.433Z,373
2019-02-17T02:12:43.622Z,374
2019-02-17T02:13:50.813Z,373
2019-02-17T02:14:57.734Z,374
2019-02-17T02:16:04.926Z,374
2019-02-17T02:17:12.116Z,373
2019-02-17T02:18:19.035Z,373
2019-02-17T02:19:26.228Z,374
2019-02-17T02:20:33.418Z,374
2019-02-17T02:21:40.329Z,373
2019-02-17T02:22:47.305Z,374
2019-02-17T02:23:54.497Z,374
2019-02-17T02:25:01.216Z,374
2019-02-17T02:26:08.407Z,375
2019-02-17T02:27:15.597Z,375
2019-02-17T02:28:22.796Z,375
2019-02-17T02:29:29.444Z,375
2019-02-17T02:30:36.636Z,376
2019-02-17T02:31:43.830Z,376
2019-02-17T02:32:50.750Z,376
2019-02-17T02:33:57.940Z,377
2019-02-17T02:35:05.166Z,377
2019-02-17T02:36:12.363Z,377
2019-02-17T02:37:19.552Z,377
2019-02-17T02:38:26.754Z,377
2019-02-17T02:39:33.947Z,378
2019-02-17T02:40:41.137Z,378
2019-02-17T02:41:48.333Z,378
2019-02-17T02:42:55.521Z,378
2019-02-17T02:44:02.441Z,377
2019-02-17T02:45:09.633Z,376
2019-02-17T02:46:16.839Z,377
2019-02-17T02:47:24.025Z,377
2019-02-17T02:48:31.216Z,377
2019-02-17T02:49:38.403Z,378
2019-02-17T02:50:45.594Z,378
2019-02-17T02:51:52.782Z,378
2019-02-17T02:52:59.981Z,379
2019-02-17T02:54:07.164Z,378
2019-02-17T02:55:14.351Z,379
2019-02-17T02:56:21.548Z,379
2019-02-17T02:57:28.461Z,379
2019-02-17T02:58:35.663Z,380
2019-02-17T02:59:53.387Z,380
2019-02-17T03:01:00.604Z,380
2019-02-17T03:02:07.799Z,379
2019-02-17T03:03:14.998Z,379
2019-02-17T03:04:21.923Z,380
2019-02-17T03:05:29.121Z,379
2019-02-17T03:06:36.323Z,379
2019-02-17T03:07:43.514Z,380
2019-02-17T03:08:50.708Z,380
2019-02-17T03:09:57.903Z,379
2019-02-17T03:11:05.092Z,378
2019-02-17T03:12:12.281Z,379
2019-02-17T03:13:19.483Z,380
2019-02-17T03:14:26.670Z,380
2019-02-17T03:15:33.862Z,378
2019-02-17T03:16:41.058Z,378
2019-02-17T03:17:48.245Z,377
2019-02-17T03:18:55.654Z,378
2019-02-17T03:20:02.578Z,379
2019-02-17T03:21:09.767Z,380
2019-02-17T03:22:16.959Z,379
2019-02-17T03:23:24.150Z,379
2019-02-17T03:24:31.345Z,378
2019-02-17T03:25:38.543Z,378
2019-02-17T03:26:45.731Z,379
2019-02-17T03:27:52.652Z,380
2019-02-17T03:28:59.846Z,380
2019-02-17T03:30:07.340Z,380
2019-02-17T03:31:14.543Z,380
2019-02-17T03:32:21.460Z,380
2019-02-17T03:33:28.650Z,380
2019-02-17T03:34:35.856Z,379
2019-02-17T03:35:43.048Z,379
2019-02-17T03:36:51.337Z,379
2019-02-17T03:37:57.982Z,379
2019-02-17T03:39:05.186Z,379
2019-02-17T03:40:12.378Z,379
2019-02-17T03:41:19.566Z,378
2019-02-17T03:42:26.749Z,379
2019-02-17T03:43:33.670Z,379
2019-02-17T03:44:40.597Z,379
2019-02-17T03:45:47.509Z,379
2019-02-17T03:46:54.701Z,379
2019-02-17T03:48:01.892Z,380
2019-02-17T03:49:09.081Z,380
2019-02-17T03:50:16.002Z,380
2019-02-17T03:51:23.233Z,380
2019-02-17T03:52:30.153Z,382
2019-02-17T03:53:37.082Z,382
2019-02-17T03:54:44.276Z,381
2019-02-17T03:55:51.197Z,381
2019-02-17T03:56:58.104Z,381
2019-02-17T03:58:05.293Z,381
2019-02-17T03:59:12.216Z,381
2019-02-17T04:00:19.402Z,380
2019-02-17T04:01:26.321Z,380
2019-02-17T04:02:33.537Z,381
2019-02-17T04:03:40.725Z,381
2019-02-17T04:04:47.911Z,381
2019-02-17T04:05:55.104Z,381
2019-02-17T04:07:02.293Z,381
2019-02-17T04:08:09.487Z,382
2019-02-17T04:09:16.672Z,382
2019-02-17T04:10:23.869Z,382
2019-02-17T04:11:30.788Z,382
2019-02-17T04:12:37.973Z,382
2019-02-17T04:13:44.928Z,380
2019-02-17T04:14:52.098Z,380
2019-02-17T04:15:59.294Z,381
2019-02-17T04:17:06.475Z,381
2019-02-17T04:18:13.392Z,382
2019-02-17T04:19:20.577Z,382
2019-02-17T04:20:27.775Z,382
2019-02-17T04:21:34.973Z,382
2019-02-17T04:22:42.158Z,382
2019-02-17T04:23:49.356Z,383
2019-02-17T04:24:56.277Z,382
2019-02-17T04:26:03.473Z,383
2019-02-17T04:27:10.659Z,383
2019-02-17T04:28:17.848Z,382
2019-02-17T04:29:25.039Z,382
2019-02-17T04:30:32.222Z,382
2019-02-17T04:31:39.414Z,382
2019-02-17T04:32:46.602Z,382
2019-02-17T04:33:53.792Z,383
2019-02-17T04:35:01.046Z,383
2019-02-17T04:36:07.969Z,382
2019-02-17T04:37:15.165Z,382
2019-02-17T04:38:22.370Z,382
2019-02-17T04:39:29.561Z,383
2019-02-17T04:40:36.750Z,383
2019-02-17T04:41:43.957Z,383
2019-02-17T04:42:51.150Z,383
2019-02-17T04:43:58.071Z,382
2019-02-17T04:45:05.264Z,382
2019-02-17T04:46:12.457Z,382
2019-02-17T04:47:19.655Z,382
2019-02-17T04:48:26.845Z,383
2019-02-17T04:49:34.039Z,383
2019-02-17T04:50:41.241Z,383
2019-02-17T04:51:48.420Z,383
2019-02-17T04:52:55.343Z,382
2019-02-17T04:54:02.539Z,382
2019-02-17T04:55:09.467Z,383
2019-02-17T04:56:16.647Z,383
2019-02-17T04:57:23.844Z,383
2019-02-17T04:58:31.023Z,383
2019-02-17T04:59:38.210Z,383
2019-02-17T05:00:45.403Z,383
2019-02-17T05:01:52.592Z,384
2019-02-17T05:02:59.779Z,384
2019-02-17T05:04:06.439Z,384
2019-02-17T05:05:13.629Z,383
2019-02-17T05:06:20.819Z,382
2019-02-17T05:07:27.738Z,382
2019-02-17T05:08:34.655Z,383
2019-02-17T05:09:41.847Z,383
2019-02-17T05:10:49.029Z,383
2019-02-17T05:11:56.218Z,383
2019-02-17T05:13:03.411Z,384
2019-02-17T05:14:10.605Z,384
2019-02-17T05:15:17.514Z,385
2019-02-17T05:16:24.439Z,384
2019-02-17T05:17:31.625Z,383
2019-02-17T05:18:38.814Z,383
2019-02-17T05:19:46.021Z,383
2019-02-17T05:20:53.209Z,384
2019-02-17T05:22:00.400Z,385
2019-02-17T05:23:07.593Z,385
2019-02-17T05:24:14.784Z,384
2019-02-17T05:25:21.970Z,384
2019-02-17T05:26:28.899Z,384
2019-02-17T05:27:35.815Z,384
2019-02-17T05:28:43.001Z,384
2019-02-17T05:29:49.912Z,385
2019-02-17T05:30:57.152Z,384
2019-02-17T05:32:04.077Z,384
2019-02-17T05:33:11.269Z,384
2019-02-17T05:34:18.454Z,384
2019-02-17T05:35:25.374Z,385
2019-02-17T05:36:32.564Z,385
2019-02-17T05:37:39.489Z,384
2019-02-17T05:38:46.683Z,385
2019-02-17T05:39:53.608Z,385
2019-02-17T05:41:00.806Z,385
2019-02-17T05:42:07.983Z,385
2019-02-17T05:43:15.176Z,386
2019-02-17T05:44:22.100Z,386
2019-02-17T05:45:29.292Z,385
2019-02-17T05:46:36.482Z,385
2019-02-17T05:47:43.404Z,385
2019-02-17T05:48:50.586Z,385
2019-02-17T05:49:57.498Z,385
2019-02-17T05:51:04.688Z,384
2019-02-17T05:52:11.983Z,384
2019-02-17T05:53:19.178Z,384
2019-02-17T05:54:26.361Z,385
2019-02-17T05:55:33.280Z,384
2019-02-17T05:56:40.472Z,384
2019-02-17T05:57:47.665Z,385
2019-02-17T05:58:55.102Z,385
2019-02-17T06:00:02.298Z,386
2019-02-17T06:01:09.501Z,385
2019-02-17T06:02:16.129Z,385
2019-02-17T06:03:23.044Z,386
2019-02-17T06:04:30.247Z,386
2019-02-17T06:05:37.539Z,385
2019-02-17T06:06:44.459Z,385
2019-02-17T06:07:51.648Z,386
2019-02-17T06:08:58.566Z,386
2019-02-17T06:10:05.484Z,386
2019-02-17T06:11:12.676Z,386
2019-02-17T06:12:19.866Z,386
2019-02-17T06:13:27.052Z,386
2019-02-17T06:14:33.698Z,385
2019-02-17T06:15:40.612Z,386
2019-02-17T06:16:47.799Z,385
2019-02-17T06:17:55.025Z,386
2019-02-17T06:19:02.220Z,386
2019-02-17T06:20:09.417Z,385
2019-02-17T06:21:16.599Z,384
2019-02-17T06:22:23.790Z,384
2019-02-17T06:23:30.974Z,383
2019-02-17T06:24:37.888Z,383
2019-02-17T06:25:45.080Z,383
2019-02-17T06:26:52.275Z,382
2019-02-17T06:27:59.460Z,383
2019-02-17T06:29:06.380Z,383
2019-02-17T06:30:13.296Z,383
2019-02-17T06:31:20.213Z,383
2019-02-17T06:32:26.851Z,383
2019-02-17T06:33:34.040Z,382
2019-02-17T06:34:41.232Z,382
2019-02-17T06:35:48.424Z,383
2019-02-17T06:36:55.624Z,383
2019-02-17T06:38:02.808Z,383
2019-02-17T06:39:09.996Z,383
2019-02-17T06:40:17.189Z,383
2019-02-17T06:41:24.108Z,383
2019-02-17T06:42:31.351Z,383
2019-02-17T06:43:38.534Z,382
2019-02-17T06:44:45.728Z,382
2019-02-17T06:45:52.921Z,382
2019-02-17T06:47:00.133Z,382
2019-02-17T06:48:07.311Z,382
2019-02-17T06:49:14.226Z,383
2019-02-17T06:50:20.881Z,383
2019-02-17T06:51:27.801Z,384
2019-02-17T06:52:34.997Z,383
2019-02-17T06:53:41.641Z,383
2019-02-17T06:54:48.837Z,383
2019-02-17T06:55:56.029Z,383
2019-02-17T06:57:02.953Z,382
2019-02-17T06:58:10.146Z,383
2019-02-17T06:59:17.075Z,382
2019-02-17T07:00:24.268Z,382
2019-02-17T07:01:31.462Z,382
2019-02-17T07:02:38.660Z,381
2019-02-17T07:03:45.854Z,381
2019-02-17T07:04:53.131Z,380
2019-02-17T07:06:00.451Z,380
2019-02-17T07:07:07.113Z,380
2019-02-17T07:08:28.974Z,381
2019-02-17T07:09:36.171Z,380
2019-02-17T07:10:43.092Z,380
2019-02-17T07:11:50.283Z,380
2019-02-17T07:12:57.484Z,380
2019-02-17T07:14:04.673Z,380
2019-02-17T07:15:11.862Z,380
2019-02-17T07:16:19.060Z,380
2019-02-17T07:17:26.249Z,379
2019-02-17T07:18:33.448Z,380
2019-02-17T07:19:40.635Z,380
2019-02-17T07:20:47.576Z,380
2019-02-17T07:21:54.776Z,380
2019-02-17T07:23:01.973Z,380
2019-02-17T07:24:09.166Z,380
2019-02-17T07:25:16.085Z,380
2019-02-17T07:26:23.277Z,380
2019-02-17T07:27:30.198Z,380
2019-02-17T07:28:37.391Z,379
2019-02-17T07:29:44.591Z,379
2019-02-17T07:30:51.248Z,379
2019-02-17T07:31:58.164Z,379
2019-02-17T07:33:05.384Z,378
2019-02-17T07:34:12.575Z,378
2019-02-17T07:35:19.770Z,378
2019-02-17T07:36:26.973Z,377
2019-02-17T07:37:34.993Z,377
2019-02-17T07:38:41.905Z,377
2019-02-17T07:39:48.829Z,376
2019-02-17T07:40:56.027Z,377
2019-02-17T07:42:03.219Z,376
2019-02-17T07:43:10.144Z,376
2019-02-17T07:44:17.064Z,375
2019-02-17T07:45:24.258Z,375
2019-02-17T07:46:31.451Z,375
2019-02-17T07:47:38.642Z,375
2019-02-17T07:48:45.835Z,373
2019-02-17T07:49:52.762Z,374
2019-02-17T07:50:59.959Z,374
2019-02-17T07:52:07.164Z,373
2019-02-17T07:53:14.368Z,373
2019-02-17T07:54:21.303Z,372
2019-02-17T07:55:28.225Z,372
2019-02-17T07:56:35.423Z,373
2019-02-17T07:57:42.616Z,373
2019-02-17T07:58:49.820Z,373
2019-02-17T07:59:57.018Z,374
2019-02-17T08:01:04.217Z,374
2019-02-17T08:02:11.151Z,375
2019-02-17T08:03:18.345Z,374
2019-02-17T08:04:25.280Z,374
2019-02-17T08:05:31.909Z,376
2019-02-17T08:06:39.305Z,376
2019-02-17T08:07:46.503Z,376
2019-02-17T08:08:53.425Z,376
2019-02-17T08:10:01.854Z,376
2019-02-17T08:11:09.052Z,375
2019-02-17T08:12:15.979Z,372
2019-02-17T08:13:23.170Z,369
2019-02-17T08:14:30.367Z,366
2019-02-17T08:16:55.120Z,359
2019-02-17T08:18:02.315Z,366
2019-02-17T08:19:09.511Z,367
2019-02-17T08:20:16.697Z,367
2019-02-17T08:21:23.888Z,367
2019-02-17T08:22:31.083Z,366
2019-02-17T08:23:38.279Z,366
2019-02-17T08:24:45.196Z,367
2019-02-17T08:25:52.119Z,367
2019-02-17T08:26:59.040Z,366
2019-02-17T08:28:06.234Z,366
2019-02-17T08:29:13.429Z,367
2019-02-17T08:30:20.615Z,366
2019-02-17T08:31:27.829Z,366
2019-02-17T08:32:34.752Z,366
2019-02-17T08:33:41.955Z,366
2019-02-17T08:34:49.147Z,366
2019-02-17T08:35:56.108Z,367
2019-02-17T08:37:03.325Z,366
2019-02-17T08:38:09.986Z,367
2019-02-17T08:39:16.910Z,365
2019-02-17T08:40:24.112Z,366
2019-02-17T08:41:31.305Z,365
2019-02-17T08:42:38.234Z,365
2019-02-17T08:43:45.428Z,364
2019-02-17T08:44:52.355Z,363
2019-02-17T08:45:59.277Z,364
2019-02-17T08:47:06.472Z,365
2019-02-17T08:48:13.668Z,364
2019-02-17T08:49:20.611Z,365
2019-02-17T08:50:27.806Z,364
2019-02-17T08:51:35.000Z,364
2019-02-17T08:52:42.206Z,364
2019-02-17T08:53:49.403Z,363
2019-02-17T08:54:56.598Z,362
2019-02-17T08:56:03.514Z,362
2019-02-17T08:57:10.444Z,363
2019-02-17T08:58:17.639Z,362
2019-02-17T08:59:24.562Z,362
2019-02-17T09:00:31.534Z,361
2019-02-17T09:01:40.983Z,363
2019-02-17T09:02:48.101Z,362
2019-02-17T09:03:55.306Z,362
2019-02-17T09:05:02.505Z,362
2019-02-17T09:06:09.696Z,362
2019-02-17T09:07:16.895Z,361
2019-02-17T09:08:24.696Z,361
2019-02-17T09:09:31.896Z,361
2019-02-17T09:10:39.108Z,361
2019-02-17T09:11:46.305Z,362
2019-02-17T09:12:52.946Z,361
2019-02-17T09:13:59.873Z,360
2019-02-17T09:15:07.072Z,361
2019-02-17T09:16:13.997Z,360
2019-02-17T09:17:21.191Z,360
2019-02-17T09:18:28.397Z,360
2019-02-17T09:19:35.586Z,359
2019-02-17T09:20:42.786Z,359
2019-02-17T09:21:49.722Z,358
2019-02-17T09:22:56.653Z,358
2019-02-17T09:24:03.853Z,357
2019-02-17T09:25:11.279Z,358
2019-02-17T09:26:18.457Z,357
2019-02-17T09:27:25.652Z,355
2019-02-17T09:28:32.850Z,356
2019-02-17T09:29:40.049Z,355
2019-02-17T09:30:47.244Z,355
2019-02-17T09:31:54.707Z,355
2019-02-17T09:33:01.905Z,353
2019-02-17T09:34:09.114Z,351
2019-02-17T09:35:16.320Z,349
2019-02-17T09:36:23.532Z,346
2019-02-17T09:37:30.741Z,342
2019-02-17T09:38:37.937Z,335
2019-02-17T09:39:45.148Z,335
2019-02-17T09:40:52.067Z,337
2019-02-17T09:41:59.260Z,338
2019-02-17T09:43:06.454Z,337
2019-02-17T09:44:13.376Z,337
2019-02-17T09:45:20.571Z,338
2019-02-17T09:46:27.771Z,338
2019-02-17T09:47:34.973Z,337
2019-02-17T09:48:42.174Z,337
2019-02-17T09:49:49.370Z,336
2019-02-17T09:50:56.567Z,337
2019-02-17T09:52:03.768Z,337
2019-02-17T09:53:11.012Z,337
2019-02-17T09:54:17.674Z,337
2019-02-17T09:55:24.605Z,336
2019-02-17T09:56:31.799Z,337
2019-02-17T09:57:39.005Z,336
2019-02-17T09:58:46.199Z,336
2019-02-17T09:59:53.400Z,335
2019-02-17T10:01:00.596Z,334
2019-02-17T10:02:07.520Z,334
2019-02-17T10:03:14.718Z,333
2019-02-17T10:04:21.922Z,332
2019-02-17T10:05:29.120Z,334
2019-02-17T10:06:36.325Z,335
2019-02-17T10:07:43.580Z,335
2019-02-17T10:08:50.773Z,333
2019-02-17T10:09:57.971Z,333
2019-02-17T10:11:05.175Z,332
2019-02-17T10:12:12.376Z,331
2019-02-17T10:13:19.578Z,332
2019-02-17T10:14:26.779Z,332
2019-02-17T10:15:33.709Z,332
2019-02-17T10:16:40.643Z,333
2019-02-17T10:17:47.571Z,333
2019-02-17T10:18:54.503Z,334
2019-02-17T10:20:01.702Z,335
2019-02-17T10:21:08.677Z,334
2019-02-17T10:22:15.877Z,335
2019-02-17T10:23:22.824Z,336
2019-02-17T10:24:30.027Z,335
2019-02-17T10:25:37.233Z,335
2019-02-17T10:26:44.434Z,335
2019-02-17T10:27:51.634Z,335
2019-02-17T10:28:58.836Z,335
2019-02-17T10:30:06.035Z,334
2019-02-17T10:31:13.232Z,334
2019-02-17T10:32:20.164Z,333
2019-02-17T10:33:27.361Z,331
2019-02-17T10:34:33.739Z,330
2019-02-17T10:35:41.536Z,329
2019-02-17T10:36:48.943Z,327
2019-02-17T10:37:56.198Z,328
2019-02-17T10:39:03.118Z,326
2019-02-17T10:40:10.318Z,325
2019-02-17T10:41:17.514Z,324
2019-02-17T10:42:24.711Z,326
2019-02-17T10:43:31.637Z,326
2019-02-17T10:44:38.834Z,324
2019-02-17T10:45:46.035Z,324
2019-02-17T10:46:52.963Z,325
2019-02-17T10:48:00.160Z,324
2019-02-17T10:49:07.370Z,322
2019-02-17T10:50:14.572Z,320
2019-02-17T10:51:21.235Z,320
2019-02-17T10:52:28.428Z,317
2019-02-17T10:53:35.630Z,316
2019-02-17T10:54:42.832Z,316
2019-02-17T10:55:50.034Z,315
2019-02-17T10:56:57.235Z,314
2019-02-17T10:58:04.432Z,316
2019-02-17T10:59:11.627Z,316
2019-02-17T11:00:18.899Z,316
2019-02-17T11:01:26.095Z,319
2019-02-17T11:02:33.022Z,321
2019-02-17T11:03:40.225Z,321
2019-02-17T11:04:47.429Z,321
2019-02-17T11:05:54.725Z,322
2019-02-17T11:07:01.924Z,321
2019-02-17T11:08:08.856Z,322
2019-02-17T11:09:16.061Z,320
2019-02-17T11:10:23.268Z,319
2019-02-17T11:11:30.500Z,319
2019-02-17T11:12:37.707Z,317
2019-02-17T11:13:44.909Z,315
2019-02-17T11:14:51.833Z,315
2019-02-17T11:15:59.031Z,314
2019-02-17T11:17:06.237Z,313
2019-02-17T11:18:13.222Z,311
2019-02-17T11:19:20.434Z,313
2019-02-17T11:20:27.632Z,314
2019-02-17T11:21:34.564Z,313
2019-02-17T11:22:41.763Z,313
2019-02-17T11:23:48.961Z,314
2019-02-17T11:24:58.226Z,316
2019-02-17T11:26:05.427Z,317
2019-02-17T11:27:12.631Z,314
2019-02-17T11:28:19.833Z,314
2019-02-17T11:29:27.035Z,314
2019-02-17T11:30:33.961Z,316
2019-02-17T11:31:40.921Z,318
2019-02-17T11:32:58.904Z,319
2019-02-17T11:34:06.111Z,317
2019-02-17T11:35:13.307Z,319
2019-02-17T11:36:20.511Z,318
2019-02-17T11:37:27.736Z,319
2019-02-17T11:38:34.654Z,320
2019-02-17T11:39:41.859Z,319
2019-02-17T11:40:49.061Z,315
2019-02-17T11:41:56.269Z,315
2019-02-17T11:43:03.193Z,313
2019-02-17T11:44:10.150Z,314
2019-02-17T11:45:17.081Z,312
2019-02-17T11:46:24.288Z,315
2019-02-17T11:47:31.491Z,316
2019-02-17T11:48:38.699Z,316
2019-02-17T11:49:45.643Z,316
2019-02-17T11:50:52.848Z,314
2019-02-17T11:52:00.047Z,315
2019-02-17T11:53:06.976Z,316
2019-02-17T11:54:14.187Z,314
2019-02-17T11:55:23.472Z,312
2019-02-17T11:56:30.672Z,311
2019-02-17T11:57:37.602Z,313
2019-02-17T11:58:44.808Z,314
2019-02-17T11:59:52.011Z,317
2019-02-17T12:00:59.216Z,316
2019-02-17T12:02:06.419Z,316
2019-02-17T12:03:13.626Z,317
2019-02-17T12:04:20.831Z,316
2019-02-17T12:05:28.044Z,316
2019-02-17T12:06:35.239Z,314
2019-02-17T12:07:42.446Z,312
2019-02-17T12:08:49.383Z,312
2019-02-17T12:09:56.586Z,309
2019-02-17T12:11:03.799Z,309
2019-02-17T12:12:11.000Z,311
2019-02-17T12:13:20.486Z,313
2019-02-17T12:14:27.698Z,311
2019-02-17T12:15:34.921Z,310
2019-02-17T12:16:42.126Z,307
2019-02-17T12:17:49.334Z,310
2019-02-17T12:18:56.537Z,310
2019-02-17T12:20:03.750Z,314
2019-02-17T12:21:10.678Z,314
2019-02-17T12:22:17.901Z,313
2019-02-17T12:23:25.112Z,311
2019-02-17T12:24:32.325Z,310
2019-02-17T12:25:39.259Z,307
2019-02-17T12:26:46.456Z,307
2019-02-17T12:27:53.384Z,309
2019-02-17T12:29:00.593Z,305
2019-02-17T12:30:07.798Z,303
2019-02-17T12:31:15.031Z,304
2019-02-17T12:32:22.235Z,305
2019-02-17T12:33:29.441Z,302
2019-02-17T12:34:36.373Z,302
2019-02-17T12:35:43.373Z,303
2019-02-17T12:36:50.580Z,307
2019-02-17T12:37:57.791Z,304
2019-02-17T12:39:05.002Z,306
2019-02-17T12:40:11.944Z,309
2019-02-17T12:41:19.150Z,308
2019-02-17T12:42:26.349Z,311
2019-02-17T12:43:33.302Z,313
2019-02-17T12:44:40.510Z,311
2019-02-17T12:45:48.023Z,306
2019-02-17T12:46:55.217Z,305
2019-02-17T12:48:02.421Z,303
2019-02-17T12:49:09.619Z,303
2019-02-17T12:50:16.836Z,301
2019-02-17T12:51:24.037Z,302
2019-02-17T12:52:31.248Z,303
2019-02-17T12:53:38.446Z,306
2019-02-17T12:54:45.661Z,308
2019-02-17T12:55:52.871Z,306
2019-02-17T12:57:00.111Z,303
2019-02-17T12:58:07.311Z,301
2019-02-17T12:59:14.514Z,303
2019-02-17T13:00:21.456Z,302
2019-02-17T13:01:28.657Z,299
2019-02-17T13:02:35.860Z,298
2019-02-17T13:03:42.788Z,297
2019-02-17T13:04:49.719Z,297
2019-02-17T13:05:56.380Z,297
2019-02-17T13:07:03.315Z,296
2019-02-17T13:08:10.516Z,296
2019-02-17T13:09:17.719Z,295
2019-02-17T13:10:24.647Z,299
2019-02-17T13:11:31.856Z,301
2019-02-17T13:12:39.064Z,306
2019-02-17T13:13:46.268Z,308
2019-02-17T13:14:53.194Z,307
2019-02-17T13:16:00.123Z,304
2019-02-17T13:17:07.330Z,306
2019-02-17T13:18:14.471Z,307
2019-02-17T13:19:21.675Z,310
2019-02-17T13:20:28.881Z,308
2019-02-17T13:21:50.736Z,304
2019-02-17T13:22:57.945Z,302
2019-02-17T13:24:04.879Z,304
2019-02-17T13:25:12.092Z,307
2019-02-17T13:26:19.029Z,307
2019-02-17T13:27:26.231Z,312
2019-02-17T13:28:33.438Z,314
2019-02-17T13:29:41.318Z,313
2019-02-17T13:30:48.521Z,313
2019-02-17T13:31:55.452Z,316
2019-02-17T13:33:02.661Z,317
2019-02-17T13:34:09.866Z,317
2019-02-17T13:35:17.066Z,317
2019-02-17T13:36:24.271Z,319
2019-02-17T13:37:31.475Z,321
2019-02-17T13:38:38.407Z,321
2019-02-17T13:39:45.340Z,321
2019-02-17T13:40:52.550Z,320
2019-02-17T13:41:59.477Z,320
2019-02-17T13:43:06.693Z,320
2019-02-17T13:44:13.906Z,318
2019-02-17T13:45:20.867Z,316
2019-02-17T13:46:27.522Z,313
2019-02-17T13:47:34.723Z,312
2019-02-17T13:48:41.927Z,313
2019-02-17T13:49:49.138Z,312
2019-02-17T13:50:56.342Z,312
2019-02-17T13:52:03.273Z,310
2019-02-17T13:53:13.068Z,310
2019-02-17T13:54:20.017Z,312
2019-02-17T13:55:27.220Z,310
2019-02-17T13:56:34.430Z,309
2019-02-17T13:57:41.634Z,310
2019-02-17T13:58:48.836Z,313
2019-02-17T13:59:56.038Z,312
2019-02-17T14:01:03.242Z,312
2019-02-17T14:02:10.189Z,312
2019-02-17T14:03:17.124Z,311
2019-02-17T14:04:24.053Z,312
2019-02-17T14:05:31.263Z,313
2019-02-17T14:06:38.469Z,314
2019-02-17T14:07:45.681Z,315
2019-02-17T14:08:52.611Z,315
2019-02-17T14:09:59.822Z,315
2019-02-17T14:11:07.109Z,314
2019-02-17T14:12:14.034Z,313
2019-02-17T14:13:20.969Z,311
2019-02-17T14:14:27.901Z,309
2019-02-17T14:15:35.114Z,310
2019-02-17T14:16:42.046Z,311
2019-02-17T14:17:49.256Z,312
2019-02-17T14:18:56.190Z,309
2019-02-17T14:20:03.391Z,308
2019-02-17T14:21:10.604Z,306
2019-02-17T14:22:17.807Z,303
2019-02-17T14:23:25.015Z,304
2019-02-17T14:24:32.219Z,305
2019-02-17T14:25:39.425Z,308
2019-02-17T14:26:46.629Z,310
2019-02-17T14:27:53.834Z,306
2019-02-17T14:29:01.031Z,304
2019-02-17T14:30:08.238Z,305
2019-02-17T14:31:15.440Z,308
2019-02-17T14:32:22.653Z,308
2019-02-17T14:33:29.852Z,309
2019-02-17T14:34:37.060Z,308
2019-02-17T14:35:44.265Z,308
2019-02-17T14:37:06.126Z,303
2019-02-17T14:38:13.340Z,305
2019-02-17T14:39:20.591Z,304
2019-02-17T14:40:27.804Z,301
2019-02-17T14:41:34.727Z,301
2019-02-17T14:42:41.940Z,300
2019-02-17T14:43:49.144Z,300
2019-02-17T14:44:56.349Z,301
2019-02-17T14:46:03.550Z,303
2019-02-17T14:47:10.753Z,303
2019-02-17T14:48:17.685Z,302
2019-02-17T14:49:24.892Z,303
2019-02-17T14:50:32.093Z,301
2019-02-17T14:51:39.022Z,304
2019-02-17T14:52:46.239Z,305
2019-02-17T14:53:53.448Z,309
2019-02-17T14:55:00.789Z,311
2019-02-17T14:56:07.995Z,311
2019-02-17T14:57:15.208Z,310
2019-02-17T14:58:22.411Z,310
2019-02-17T14:59:29.414Z,310
2019-02-17T15:00:36.620Z,308
2019-02-17T15:01:43.830Z,309
2019-02-17T15:02:51.040Z,313
2019-02-17T15:04:08.065Z,314
2019-02-17T15:05:15.989Z,310
2019-02-17T15:06:22.918Z,305
2019-02-17T15:07:30.124Z,301
2019-02-17T15:08:37.057Z,301
2019-02-17T15:09:43.989Z,298
2019-02-17T15:10:51.191Z,300
2019-02-17T15:11:58.410Z,300
2019-02-17T15:13:05.627Z,300
2019-02-17T15:14:12.561Z,301
2019-02-17T15:15:19.786Z,302
2019-02-17T15:16:26.999Z,305
2019-02-17T15:17:34.208Z,303
2019-02-17T15:18:41.419Z,307
2019-02-17T15:19:48.624Z,316
2019-02-17T15:20:55.831Z,323
2019-02-17T15:22:03.034Z,325
2019-02-17T15:23:10.244Z,323
2019-02-17T15:24:17.184Z,321
2019-02-17T15:25:24.391Z,320
2019-02-17T15:26:31.589Z,317
2019-02-17T15:27:38.511Z,316